PABR METAR and TAF weather

Enter ICAO airport designator
Station Type Date Time Source
PABR METAR 2021/01/17 18:53 UTC NOAA

PABR 171853Z 08015KT 5SM HZ OVC030 M19/M22 A2992 RMK AO2 SLP133 T11891222


Station Type Date Time Source
PABR Decoded METAR 2021/01/17 18:53 UTC NOAA

POST ROGERS MEMORIAL AIRPORT, AK, United States (PABR) 71-17N 156-46W 10M
Jan 17, 2021 - 01:53 PM EST / 2021.01.17 1853 UTC
Wind: from the E (080 degrees) at 17 MPH (15 KT):0
Visibility: 5 mile(s):0
Sky conditions: overcast
Weather: haze
Temperature: -2.0 F (-18.9 C)
Windchill: -23 F (-31 C):2
Dew Point: -8.0 F (-22.2 C)
Relative Humidity: 75%
Pressure (altimeter): 29.92 in. Hg (1013 hPa)
ob: PABR 171853Z 08015KT 5SM HZ OVC030 M19/M22 A2992 RMK AO2 SLP133 T11891222
cycle: 19

Station Type Date Time Source
PABR TAF 2021/01/17 18:30 UTC NOAA

TAF PABR 171728Z 1718/1818 08014KT P6SM BKN016 BKN022 OVC030
FM172100 07014KT P6SM OVC025

Example: see airport list